createdAt,value
2023-05-16T00:00:09.006Z,12.88
2023-05-16T00:02:54.560Z,10.30
2023-05-16T00:05:40.090Z,12.13
2023-05-16T00:08:25.468Z,11.10
2023-05-16T00:11:11.004Z,9.63
2023-05-16T00:13:56.547Z,12.23
2023-05-16T00:16:41.813Z,12.43
2023-05-16T00:19:27.965Z,11.93
2023-05-16T00:22:13.630Z,15.02
2023-05-16T00:24:58.920Z,10.88
2023-05-16T00:27:44.305Z,8.98
2023-05-16T00:30:29.778Z,10.38
2023-05-16T00:33:15.321Z,14.23
2023-05-16T00:36:00.867Z,9.65
2023-05-16T00:38:46.190Z,10.95
2023-05-16T00:41:31.646Z,13.65
2023-05-16T00:44:17.348Z,10.90
2023-05-16T00:47:03.879Z,12.63
2023-05-16T00:49:49.207Z,14.48
2023-05-16T00:52:36.133Z,13.32
2023-05-16T00:55:21.826Z,7.32
2023-05-16T00:58:07.327Z,13.18
2023-05-16T01:00:53.280Z,10.05
2023-05-16T01:03:39.412Z,12.77
2023-05-16T01:06:24.971Z,6.63
2023-05-16T01:09:12.384Z,6.32
2023-05-16T01:12:06.717Z,12.77
2023-05-16T01:15:03.932Z,13.73
2023-05-16T01:18:08.363Z,12.07
2023-05-16T01:21:00.445Z,8.90
2023-05-16T01:24:03.540Z,7.18
2023-05-16T01:26:49.824Z,11.02
2023-05-16T01:29:35.120Z,7.70
2023-05-16T01:32:22.689Z,9.25
2023-05-16T01:35:09.715Z,10.73
2023-05-16T01:38:23.349Z,14.68
2023-05-16T01:42:02.069Z,13.65
2023-05-16T01:44:56.905Z,7.63
2023-05-16T01:47:47.502Z,10.32
2023-05-16T01:50:38.920Z,10.80
2023-05-16T01:53:36.864Z,11.45
2023-05-16T01:56:23.011Z,8.20
2023-05-16T01:59:10.165Z,9.80
2023-05-16T02:01:57.410Z,11.13
2023-05-16T02:04:42.806Z,11.15
2023-05-16T02:07:28.256Z,5.78
2023-05-16T02:10:14.030Z,16.60
2023-05-16T02:12:58.883Z,10.45
2023-05-16T02:15:44.411Z,7.03
2023-05-16T02:18:29.924Z,6.82
2023-05-16T02:21:15.402Z,8.15
2023-05-16T02:24:01.296Z,9.20
2023-05-16T02:26:46.421Z,11.20
2023-05-16T02:29:31.930Z,12.15
2023-05-16T02:32:17.040Z,7.65
2023-05-16T02:35:02.401Z,6.88
2023-05-16T02:37:48.338Z,7.13
2023-05-16T02:40:33.776Z,6.65
2023-05-16T02:43:19.135Z,8.38
2023-05-16T02:46:05.464Z,7.28
2023-05-16T02:48:51.543Z,9.75
2023-05-16T02:51:37.024Z,11.23
2023-05-16T02:54:22.346Z,6.00
2023-05-16T02:57:07.690Z,10.68
2023-05-16T02:59:53.201Z,6.70
2023-05-16T03:02:38.757Z,10.10
2023-05-16T03:05:27.243Z,9.23
2023-05-16T03:08:12.475Z,6.43
2023-05-16T03:10:57.944Z,12.80
2023-05-16T03:13:43.199Z,6.70
2023-05-16T03:16:28.673Z,8.23
2023-05-16T03:19:14.146Z,10.95
2023-05-16T03:21:59.425Z,8.57
2023-05-16T03:24:45.083Z,8.10
2023-05-16T03:27:30.934Z,10.68
2023-05-16T03:30:16.352Z,8.68
2023-05-16T03:33:01.928Z,10.93
2023-05-16T03:35:47.395Z,8.50
2023-05-16T03:38:32.622Z,12.77
2023-05-16T03:41:18.006Z,12.40
2023-05-16T03:44:03.456Z,6.78
2023-05-16T03:46:51.264Z,10.77
2023-05-16T03:49:37.398Z,12.02
2023-05-16T03:52:22.757Z,7.07
2023-05-16T03:55:09.354Z,8.77
2023-05-16T03:57:54.712Z,10.15
2023-05-16T04:00:40.190Z,7.50
2023-05-16T04:03:28.664Z,8.60
2023-05-16T04:06:14.364Z,6.75
2023-05-16T04:08:59.607Z,11.07
2023-05-16T04:11:45.011Z,6.50
2023-05-16T04:14:30.807Z,10.57
2023-05-16T04:17:16.055Z,9.65
2023-05-16T04:20:01.480Z,8.32
2023-05-16T04:22:47.495Z,9.65
2023-05-16T04:25:32.682Z,8.00
2023-05-16T04:28:18.311Z,5.50
2023-05-16T04:31:04.015Z,10.55
2023-05-16T04:33:49.692Z,9.43
2023-05-16T04:36:35.438Z,8.52
2023-05-16T04:39:20.611Z,7.65
2023-05-16T04:42:06.480Z,11.35
2023-05-16T04:44:52.591Z,9.13
2023-05-16T04:47:38.862Z,4.03
2023-05-16T04:50:24.576Z,5.47
2023-05-16T04:53:09.951Z,7.22
2023-05-16T04:55:55.298Z,5.50
2023-05-16T04:58:42.839Z,6.97
2023-05-16T05:01:28.207Z,7.47
2023-05-16T05:04:13.533Z,6.57
2023-05-16T05:06:59.848Z,4.85
2023-05-16T05:09:44.976Z,4.00
2023-05-16T05:12:30.719Z,7.20
2023-05-16T05:15:15.825Z,6.32
2023-05-16T05:18:01.856Z,4.82
2023-05-16T05:20:47.356Z,4.57
2023-05-16T05:23:34.686Z,3.47
2023-05-16T05:26:19.813Z,6.72
2023-05-16T05:29:06.246Z,6.32
2023-05-16T05:31:51.990Z,6.68
2023-05-16T05:34:37.414Z,5.93
2023-05-16T05:37:22.671Z,5.78
2023-05-16T05:40:08.739Z,5.63
2023-05-16T05:42:54.029Z,7.90
2023-05-16T05:45:39.426Z,6.68
2023-05-16T05:48:24.921Z,4.35
2023-05-16T05:51:10.349Z,5.50
2023-05-16T05:53:56.014Z,5.05
2023-05-16T05:56:41.075Z,5.63
2023-05-16T05:59:26.440Z,6.40
2023-05-16T06:02:11.788Z,7.53
2023-05-16T06:04:57.244Z,8.75
2023-05-16T06:07:42.342Z,9.80
2023-05-16T06:10:27.905Z,8.18
2023-05-16T06:13:13.224Z,8.20
2023-05-16T06:15:58.721Z,6.15
2023-05-16T06:18:44.422Z,8.52
2023-05-16T06:21:29.792Z,5.97
2023-05-16T06:24:15.089Z,6.70
2023-05-16T06:27:00.373Z,7.43
2023-05-16T06:29:45.594Z,10.00
2023-05-16T06:32:31.191Z,7.32
2023-05-16T06:35:16.676Z,6.55
2023-05-16T06:38:01.939Z,7.82
2023-05-16T06:40:47.389Z,6.13
2023-05-16T06:43:32.659Z,4.70
2023-05-16T06:46:18.254Z,6.10
2023-05-16T06:49:04.001Z,9.48
2023-05-16T06:51:48.996Z,7.68
2023-05-16T06:54:34.742Z,7.88
2023-05-16T06:57:19.866Z,9.20
2023-05-16T07:00:06.946Z,10.73
2023-05-16T07:02:52.329Z,7.20
2023-05-16T07:05:37.503Z,11.15
2023-05-16T07:08:22.885Z,7.78
2023-05-16T07:11:08.198Z,6.57
2023-05-16T07:13:53.683Z,3.97
2023-05-16T07:16:39.056Z,8.85
2023-05-16T07:19:24.353Z,6.25
2023-05-16T07:22:11.000Z,7.20
2023-05-16T07:24:57.193Z,5.15
2023-05-16T07:27:44.738Z,8.10
2023-05-16T07:30:30.472Z,4.53
2023-05-16T07:33:15.982Z,4.78
2023-05-16T07:36:15.342Z,6.47
2023-05-16T07:39:02.602Z,5.28
2023-05-16T07:41:47.864Z,6.82
2023-05-16T07:44:33.188Z,6.30
2023-05-16T07:47:18.612Z,4.07
2023-05-16T07:50:03.986Z,6.47
2023-05-16T07:52:49.282Z,4.60
2023-05-16T07:55:34.987Z,7.75
2023-05-16T07:58:20.463Z,4.13
2023-05-16T08:01:06.070Z,6.80
2023-05-16T08:03:53.494Z,3.75
2023-05-16T08:06:39.089Z,3.20
2023-05-16T08:09:24.553Z,10.93
2023-05-16T08:12:10.251Z,5.68
2023-05-16T08:14:55.574Z,5.28
2023-05-16T08:17:41.306Z,7.70
2023-05-16T08:20:27.334Z,7.78
2023-05-16T08:23:12.567Z,7.93
2023-05-16T08:25:58.712Z,7.35
2023-05-16T08:28:43.739Z,11.13
2023-05-16T08:31:29.186Z,6.65
2023-05-16T08:34:14.815Z,6.03
2023-05-16T08:37:00.492Z,5.53
2023-05-16T08:39:46.273Z,6.30
2023-05-16T08:42:31.516Z,4.75
2023-05-16T08:45:16.911Z,4.72
2023-05-16T08:48:03.686Z,6.95
2023-05-16T08:50:49.093Z,12.27
2023-05-16T08:53:41.295Z,11.85
2023-05-16T08:56:27.350Z,15.40
2023-05-16T08:59:13.066Z,12.00
2023-05-16T09:01:59.247Z,8.68
2023-05-16T09:04:45.670Z,7.15
2023-05-16T09:07:31.464Z,10.15
2023-05-16T09:10:17.133Z,9.48
2023-05-16T09:13:02.367Z,10.32
2023-05-16T09:16:11.689Z,7.85
2023-05-16T09:19:00.200Z,7.32
2023-05-16T09:21:45.915Z,10.07
2023-05-16T09:24:31.557Z,8.27
2023-05-16T09:27:16.710Z,5.28
2023-05-16T09:30:02.669Z,6.65
2023-05-16T09:32:48.002Z,7.00
2023-05-16T09:38:22.067Z,9.95
2023-05-16T09:41:09.906Z,7.07
2023-05-16T09:43:55.779Z,6.93
2023-05-16T09:46:41.486Z,6.47
2023-05-16T09:49:26.985Z,5.88
2023-05-16T09:52:16.513Z,8.43
2023-05-16T09:55:06.434Z,5.72
2023-05-16T09:57:52.380Z,4.97
2023-05-16T10:00:38.016Z,4.85
2023-05-16T10:03:24.640Z,4.93
2023-05-16T10:06:12.747Z,4.30
2023-05-16T10:08:59.450Z,7.32
2023-05-16T10:11:47.605Z,6.07
2023-05-16T10:14:37.615Z,6.95
2023-05-16T10:17:24.371Z,5.53
2023-05-16T10:20:11.689Z,3.58
2023-05-16T10:22:58.633Z,5.45
2023-05-16T10:25:45.974Z,9.25
2023-05-16T10:28:32.316Z,8.85
2023-05-16T10:31:18.065Z,7.75
2023-05-16T10:34:03.920Z,7.93
2023-05-16T10:36:49.527Z,4.53
2023-05-16T10:39:36.528Z,3.83
2023-05-16T10:42:21.893Z,6.50
2023-05-16T10:45:20.061Z,3.90
2023-05-16T10:48:09.945Z,4.20
2023-05-16T10:50:55.714Z,5.80
2023-05-16T10:53:41.244Z,6.25
2023-05-16T10:56:28.564Z,6.25
2023-05-16T10:59:25.559Z,5.28
2023-05-16T11:02:25.101Z,3.88
2023-05-16T11:05:17.609Z,3.97
2023-05-16T11:08:05.463Z,5.03
2023-05-16T11:10:50.839Z,5.07
2023-05-16T11:13:53.646Z,7.15
2023-05-16T11:19:35.328Z,5.38
2023-05-16T11:22:23.267Z,5.53
2023-05-16T11:25:10.689Z,3.20
2023-05-16T11:27:56.121Z,4.60
2023-05-16T11:30:46.425Z,5.85
2023-05-16T11:33:35.718Z,5.10
2023-05-16T11:36:25.515Z,4.28
2023-05-16T11:39:12.293Z,4.32
2023-05-16T11:41:57.949Z,4.82
2023-05-16T11:44:43.793Z,5.35
2023-05-16T11:47:30.894Z,6.93
2023-05-16T11:50:22.109Z,7.38
2023-05-16T11:53:08.534Z,9.95
2023-05-16T11:55:55.726Z,8.80
2023-05-16T11:58:42.528Z,6.05
2023-05-16T12:01:35.856Z,10.70
2023-05-16T12:04:22.288Z,7.47
2023-05-16T12:07:07.917Z,6.80
2023-05-16T12:09:53.869Z,4.97
2023-05-16T12:12:41.656Z,3.40
2023-05-16T12:15:28.487Z,9.25
2023-05-16T12:18:14.848Z,14.93
2023-05-16T12:21:00.230Z,11.95
2023-05-16T12:23:45.570Z,8.18
2023-05-16T12:26:33.376Z,8.60
2023-05-16T12:29:21.874Z,5.80
2023-05-16T12:32:08.845Z,3.72
2023-05-16T12:34:54.769Z,6.10
2023-05-16T12:37:40.163Z,6.32
2023-05-16T12:40:30.251Z,3.75
2023-05-16T12:43:19.068Z,8.38
2023-05-16T12:46:10.442Z,4.05
2023-05-16T12:49:05.615Z,6.95
2023-05-16T12:51:52.487Z,6.13
2023-05-16T12:54:37.872Z,7.53
2023-05-16T12:57:23.146Z,5.30
2023-05-16T13:00:09.040Z,5.63
2023-05-16T13:02:54.624Z,7.38
2023-05-16T13:05:39.992Z,6.90
2023-05-16T13:08:25.716Z,6.10
2023-05-16T13:11:10.979Z,4.30
2023-05-16T13:13:56.426Z,3.30
2023-05-16T13:16:41.982Z,6.05
2023-05-16T13:19:27.390Z,3.72
2023-05-16T13:22:13.198Z,4.43
2023-05-16T13:24:58.255Z,4.55
2023-05-16T13:27:44.009Z,4.30
2023-05-16T13:30:30.524Z,8.18
2023-05-16T13:33:15.838Z,5.18
2023-05-16T13:36:01.040Z,5.70
2023-05-16T13:38:46.600Z,6.20
2023-05-16T13:41:33.474Z,5.13
2023-05-16T13:44:19.308Z,6.78
2023-05-16T13:47:04.458Z,7.50
2023-05-16T13:49:49.771Z,5.93
2023-05-16T13:52:37.727Z,8.10
2023-05-16T13:55:23.632Z,4.75
2023-05-16T13:58:09.209Z,4.03
2023-05-16T14:00:54.762Z,4.30
2023-05-16T14:03:40.657Z,7.07
2023-05-16T14:06:25.974Z,2.63
2023-05-16T14:09:13.027Z,2.95
2023-05-16T14:11:58.394Z,3.75
2023-05-16T14:14:43.774Z,5.22
2023-05-16T14:17:29.384Z,5.30
2023-05-16T14:20:15.389Z,5.25
2023-05-16T14:23:01.074Z,8.27
2023-05-16T14:25:46.247Z,4.82
2023-05-16T14:28:32.904Z,7.80
2023-05-16T14:31:18.987Z,3.20
2023-05-16T14:34:04.523Z,5.55
2023-05-16T14:36:49.906Z,5.38
2023-05-16T14:39:35.250Z,4.13
2023-05-16T14:42:21.367Z,5.47
2023-05-16T14:45:07.088Z,7.38
2023-05-16T14:47:52.565Z,5.00
2023-05-16T14:50:38.108Z,5.47
2023-05-16T14:53:23.511Z,5.60
2023-05-16T14:56:08.942Z,4.05
2023-05-16T14:58:54.343Z,5.40
2023-05-16T15:01:39.793Z,6.70
2023-05-16T15:04:31.886Z,4.97
2023-05-16T15:07:17.250Z,4.80
2023-05-16T15:10:02.581Z,5.78
2023-05-16T15:12:48.002Z,4.68
2023-05-16T15:15:33.801Z,5.65
2023-05-16T15:18:20.761Z,3.05
2023-05-16T15:21:06.447Z,7.50
2023-05-16T15:23:51.775Z,6.57
2023-05-16T15:26:38.475Z,7.22
2023-05-16T15:29:24.232Z,4.85
2023-05-16T15:32:11.205Z,6.55
2023-05-16T15:34:57.117Z,5.10
2023-05-16T15:37:43.613Z,5.65
2023-05-16T15:40:29.288Z,4.88
2023-05-16T15:43:14.391Z,4.95
2023-05-16T15:46:00.011Z,4.18
2023-05-16T15:48:45.494Z,7.07
2023-05-16T15:51:31.571Z,3.58
2023-05-16T15:54:17.076Z,6.47
2023-05-16T15:57:02.532Z,6.38
2023-05-16T15:59:47.932Z,5.03
2023-05-16T16:02:33.522Z,7.18
2023-05-16T16:05:18.859Z,6.43
2023-05-16T16:08:04.516Z,6.57
2023-05-16T16:10:49.608Z,4.50
2023-05-16T16:13:35.151Z,6.85
2023-05-16T16:16:20.290Z,7.10
2023-05-16T16:19:05.923Z,5.45
2023-05-16T16:21:51.623Z,7.82
2023-05-16T16:24:37.398Z,7.15
2023-05-16T16:27:22.406Z,5.03
2023-05-16T16:30:09.234Z,6.63
2023-05-16T16:32:54.961Z,7.38
2023-05-16T16:35:40.355Z,4.97
2023-05-16T16:38:25.933Z,3.17
2023-05-16T16:41:11.472Z,6.95
2023-05-16T16:43:56.900Z,8.65
2023-05-16T16:46:42.742Z,5.88
2023-05-16T16:49:27.994Z,7.03
2023-05-16T16:52:13.782Z,3.78
2023-05-16T16:54:58.828Z,6.35
2023-05-16T16:57:44.186Z,7.40
2023-05-16T17:00:29.677Z,6.25
2023-05-16T17:03:15.112Z,7.65
2023-05-16T17:06:00.643Z,9.50
2023-05-16T17:08:46.310Z,8.27
2023-05-16T17:11:31.706Z,7.47
2023-05-16T17:14:17.394Z,8.85
2023-05-16T17:17:02.871Z,16.38
2023-05-16T17:19:48.241Z,7.75
2023-05-16T17:22:33.767Z,6.03
2023-05-16T17:25:19.128Z,8.90
2023-05-16T17:28:04.552Z,4.60
2023-05-16T17:30:49.917Z,8.82
2023-05-16T17:33:35.489Z,6.30
2023-05-16T17:36:21.116Z,5.03
2023-05-16T17:39:08.241Z,6.50
2023-05-16T17:41:57.389Z,5.78
2023-05-16T17:44:42.609Z,5.97
2023-05-16T17:47:28.133Z,8.77
2023-05-16T17:50:13.823Z,8.60
2023-05-16T17:52:59.454Z,8.27
2023-05-16T17:55:45.257Z,9.88
2023-05-16T17:58:30.605Z,5.07
2023-05-16T18:01:15.988Z,6.97
2023-05-16T18:04:01.566Z,5.80
2023-05-16T18:06:48.243Z,7.25
2023-05-16T18:09:33.868Z,6.25
2023-05-16T18:12:19.087Z,10.48
2023-05-16T18:15:08.918Z,10.60
2023-05-16T18:17:54.865Z,9.80
2023-05-16T18:20:40.830Z,8.02
2023-05-16T18:23:26.067Z,7.65
2023-05-16T18:26:11.455Z,6.57
2023-05-16T18:28:57.925Z,10.02
2023-05-16T18:31:44.044Z,9.27
2023-05-16T18:34:29.438Z,8.30
2023-05-16T18:37:14.773Z,9.85
2023-05-16T18:40:00.124Z,7.43
2023-05-16T18:42:45.578Z,9.07
2023-05-16T18:45:31.735Z,6.97
2023-05-16T18:48:17.704Z,6.82
2023-05-16T18:51:03.308Z,13.30
2023-05-16T18:53:48.670Z,10.93
2023-05-16T18:56:34.240Z,13.30
2023-05-16T18:59:19.452Z,12.57
2023-05-16T19:02:04.913Z,11.27
2023-05-16T19:04:50.333Z,10.43
2023-05-16T19:07:35.754Z,9.93
2023-05-16T19:10:21.264Z,8.65
2023-05-16T19:13:08.162Z,5.28
2023-05-16T19:15:53.686Z,7.35
2023-05-16T19:18:39.428Z,7.63
2023-05-16T19:21:25.163Z,9.48
2023-05-16T19:24:10.416Z,10.93
2023-05-16T19:26:55.960Z,10.88
2023-05-16T19:29:41.443Z,10.05
2023-05-16T19:32:26.925Z,6.45
2023-05-16T19:35:12.348Z,14.25
2023-05-16T19:37:57.849Z,5.68
2023-05-16T19:40:44.519Z,6.97
2023-05-16T19:43:30.209Z,10.68
2023-05-16T19:46:15.481Z,9.18
2023-05-16T19:49:01.017Z,6.63
2023-05-16T19:51:46.824Z,8.07
2023-05-16T19:54:32.354Z,19.52
2023-05-16T19:57:17.755Z,10.15
2023-05-16T20:00:05.413Z,8.68
2023-05-16T20:02:58.071Z,9.63
2023-05-16T20:05:43.428Z,9.40
2023-05-16T20:08:28.762Z,9.70
2023-05-16T20:11:14.126Z,11.15
2023-05-16T20:14:00.182Z,11.45
2023-05-16T20:16:45.936Z,11.45
2023-05-16T20:19:31.621Z,10.27
2023-05-16T20:22:17.410Z,16.70
2023-05-16T20:25:02.826Z,14.45
2023-05-16T20:27:48.297Z,11.38
2023-05-16T20:30:33.615Z,9.80
2023-05-16T20:33:18.896Z,8.32
2023-05-16T20:36:04.359Z,12.27
2023-05-16T20:38:50.755Z,11.20
2023-05-16T20:41:36.299Z,11.32
2023-05-16T20:44:21.798Z,13.57
2023-05-16T20:47:07.729Z,14.23
2023-05-16T20:49:53.398Z,12.13
2023-05-16T20:52:39.000Z,13.02
2023-05-16T20:55:25.975Z,12.63
2023-05-16T20:58:11.703Z,13.27
2023-05-16T21:00:57.186Z,12.00
2023-05-16T21:03:42.812Z,16.33
2023-05-16T21:06:28.165Z,15.13
2023-05-16T21:09:13.486Z,11.30
2023-05-16T21:11:58.740Z,8.25
2023-05-16T21:14:46.483Z,12.75
2023-05-16T21:17:31.733Z,10.50
2023-05-16T21:20:17.095Z,16.35
2023-05-16T21:23:02.651Z,12.82
2023-05-16T21:25:47.898Z,14.43
2023-05-16T21:28:36.935Z,14.77
2023-05-16T21:31:27.869Z,14.88
2023-05-16T21:34:13.266Z,12.23
2023-05-16T21:36:58.824Z,14.00
2023-05-16T21:39:44.247Z,14.07
2023-05-16T21:42:29.483Z,21.88
2023-05-16T21:45:16.510Z,14.82
2023-05-16T21:48:01.980Z,12.88
2023-05-16T21:50:47.678Z,12.88
2023-05-16T21:53:34.290Z,10.52
2023-05-16T21:56:19.456Z,11.25
2023-05-16T21:59:04.778Z,13.73
2023-05-16T22:01:50.291Z,14.68
2023-05-16T22:04:35.954Z,14.80
2023-05-16T22:07:21.748Z,15.13
2023-05-16T22:10:07.499Z,11.25
2023-05-16T22:12:52.702Z,10.38
2023-05-16T22:15:39.492Z,16.85
2023-05-16T22:18:25.056Z,13.80
2023-05-16T22:21:11.252Z,17.55
2023-05-16T22:23:56.462Z,14.55
2023-05-16T22:26:41.877Z,14.93
2023-05-16T22:29:27.276Z,12.20
2023-05-16T22:32:12.856Z,11.88
2023-05-16T22:34:58.023Z,13.27
2023-05-16T22:37:43.645Z,10.95
2023-05-16T22:40:29.003Z,17.45
2023-05-16T22:43:14.423Z,13.38
2023-05-16T22:46:02.225Z,13.55
2023-05-16T22:48:48.611Z,11.65
2023-05-16T22:51:33.938Z,12.80
2023-05-16T22:54:19.390Z,13.88
2023-05-16T22:57:04.881Z,16.65
2023-05-16T22:59:50.211Z,16.60
2023-05-16T23:02:35.578Z,16.77
2023-05-16T23:05:21.025Z,20.27
2023-05-16T23:08:06.411Z,13.23
2023-05-16T23:10:51.675Z,19.35
2023-05-16T23:13:37.426Z,18.08
2023-05-16T23:16:22.802Z,11.57
2023-05-16T23:19:09.739Z,15.75
2023-05-16T23:21:55.294Z,18.17
2023-05-16T23:24:40.594Z,20.40
2023-05-16T23:27:25.934Z,19.65
2023-05-16T23:30:11.761Z,14.70
2023-05-16T23:32:57.303Z,20.08
2023-05-16T23:35:42.572Z,18.65
2023-05-16T23:38:27.990Z,16.52
2023-05-16T23:41:14.045Z,14.77
2023-05-16T23:43:59.291Z,12.80
2023-05-16T23:46:44.698Z,13.30
2023-05-16T23:49:29.999Z,11.70
2023-05-16T23:52:15.410Z,13.23
2023-05-16T23:55:01.043Z,13.90
2023-05-16T23:57:46.760Z,13.88
